Terminal Aerodrome Forecast
Issued by NWS

Home | Current Version | Previous Version | Text Only | Print | Product List | Glossary On
Versions: 1 2 3 4 5 6 7 8 9 10 11 12 13 14 15 16 17 18 19
000
FTUS43 KGLD 191720
TAFMCK
TAF
KMCK 191720Z 1918/2018 VRB06KT P6SM FEW150
     FM192300 VRB03KT P6SM FEW030 SCT150
     FM201200 20005KT P6SM FEW250=

USA.gov is the U.S. government's official web portal to all federal, state and local government web resources and services.